Time;durP1;ratioP1;P1;durP2;ratioP2;P2;SDS_P1;SDS_P2;PMS_P1;PMS_P2;Temp;Humidity;BMP_temperature;BMP_pressure;BME280_temperature;BME280_humidity;BME280_pressure;Samples;Min_cycle;Max_cycle;Signal;HPM_P1;HPM_P2
2022/07/18 00:01:30;;;;;;;13.20;5.70;;;;;;;19.37;100.00;102392.22;5095382;28;20028;-69
2022/07/18 00:03:55;;;;;;;7.75;5.68;;;;;;;19.28;100.00;102392.19;5109452;28;20386;-70
2022/07/18 00:06:21;;;;;;;7.20;5.53;;;;;;;19.21;100.00;102389.47;5109514;28;20153;-69
2022/07/18 00:08:46;;;;;;;9.95;5.93;;;;;;;19.24;100.00;102385.06;5095530;28;20107;-69
2022/07/18 00:11:11;;;;;;;9.07;5.88;;;;;;;19.15;100.00;102388.56;5095595;28;20024;-69
2022/07/18 00:13:37;;;;;;;10.20;5.70;;;;;;;19.03;100.00;102387.59;5095714;28;20577;-70
2022/07/18 00:16:03;;;;;;;10.13;5.35;;;;;;;18.99;100.00;102382.22;5077227;28;20020;-70
2022/07/18 00:18:28;;;;;;;10.20;5.68;;;;;;;18.98;100.00;102383.13;5080439;28;20019;-70
2022/07/18 00:20:54;;;;;;;9.10;5.43;;;;;;;18.87;100.00;102386.56;5103864;28;20103;-69
2022/07/18 00:23:19;;;;;;;10.43;5.70;;;;;;;18.87;100.00;102381.25;5101867;28;20066;-69
2022/07/18 00:25:44;;;;;;;10.18;5.30;;;;;;;18.83;100.00;102374.09;5115922;28;20023;-69
2022/07/18 00:28:11;;;;;;;11.43;5.70;;;;;;;18.78;100.00;102370.50;5115780;28;20424;-69
2022/07/18 00:30:37;;;;;;;10.57;5.68;;;;;;;18.79;100.00;102369.63;5115894;28;20015;-70
2022/07/18 00:33:03;;;;;;;11.50;5.72;;;;;;;18.73;100.00;102372.25;5082811;28;20035;-69
2022/07/18 00:35:28;;;;;;;7.32;5.20;;;;;;;18.75;100.00;102369.59;5095472;28;20345;-69
2022/07/18 00:37:54;;;;;;;10.35;5.57;;;;;;;18.75;100.00;102374.94;5095257;28;20024;-70
2022/07/18 00:40:19;;;;;;;9.55;5.95;;;;;;;18.76;100.00;102361.63;5094957;28;20084;-69
2022/07/18 00:42:44;;;;;;;9.80;5.50;;;;;;;18.75;100.00;102367.81;5094982;28;20050;-69
2022/07/18 00:45:10;;;;;;;8.35;5.55;;;;;;;18.86;100.00;102373.22;5095061;28;20428;-69
2022/07/18 00:47:35;;;;;;;11.40;6.35;;;;;;;18.93;100.00;102375.06;5095083;28;20028;-69
2022/07/18 00:50:03;;;;;;;10.10;6.15;;;;;;;18.99;100.00;102372.47;5102230;28;20027;-70
2022/07/18 00:52:28;;;;;;;9.88;6.05;;;;;;;19.00;100.00;102370.69;5114682;28;20024;-70
2022/07/18 00:54:54;;;;;;;10.15;5.75;;;;;;;19.02;100.00;102372.47;5102398;28;20043;-67
2022/07/18 00:57:19;;;;;;;8.55;5.35;;;;;;;19.05;100.00;102374.28;5101032;28;20031;-68
2022/07/18 01:02:29;;;;;;;10.00;5.85;;;;;;;18.97;100.00;102357.31;5108417;28;20108;-70
2022/07/18 01:04:55;;;;;;;7.93;5.43;;;;;;;18.95;100.00;102372.41;5094728;28;20103;-70
2022/07/18 01:07:20;;;;;;;8.40;5.45;;;;;;;18.91;100.00;102363.53;5097913;28;20467;-70
2022/07/18 01:09:45;;;;;;;9.75;5.25;;;;;;;18.88;100.00;102355.47;5105005;28;20067;-70
2022/07/18 01:12:11;;;;;;;12.43;5.70;;;;;;;18.89;100.00;102351.94;5107300;28;20107;-69
2022/07/18 01:14:37;;;;;;;9.88;5.97;;;;;;;18.83;100.00;102355.44;5104559;28;20024;-69
2022/07/18 01:17:10;;;;;;;10.20;6.53;;;;;;;18.92;100.00;102361.75;5098086;28;20024;-70
2022/07/18 01:19:36;;;;;;;8.07;5.93;;;;;;;18.80;100.00;102358.09;5095879;28;20066;-69
2022/07/18 01:22:01;;;;;;;11.57;5.22;;;;;;;18.82;100.00;102361.63;5107599;28;20467;-70
2022/07/18 01:24:26;;;;;;;10.02;5.20;;;;;;;18.75;100.00;102365.16;5104276;28;20129;-70
2022/07/18 01:26:52;;;;;;;13.82;5.78;;;;;;;18.81;100.00;102358.97;5111279;28;20058;-69
2022/07/18 01:29:17;;;;;;;8.27;4.97;;;;;;;18.81;100.00;102354.50;5094075;28;20059;-70
2022/07/18 01:31:42;;;;;;;11.48;5.47;;;;;;;18.86;100.00;102355.44;5094339;28;20028;-69
2022/07/18 01:34:08;;;;;;;7.90;4.93;;;;;;;18.70;100.00;102357.09;5076153;28;20020;-69
2022/07/18 01:36:33;;;;;;;9.13;5.13;;;;;;;18.71;100.00;102358.03;5078662;28;20110;-68
2022/07/18 01:38:58;;;;;;;9.63;5.72;;;;;;;18.57;100.00;102354.34;5114664;28;20108;-70
2022/07/18 01:41:24;;;;;;;14.23;5.95;;;;;;;18.54;100.00;102353.47;5111676;28;20472;-70
2022/07/18 01:43:49;;;;;;;10.55;5.50;;;;;;;18.56;100.00;102355.22;5094024;28;20024;-70
2022/07/18 01:46:15;;;;;;;10.43;5.40;;;;;;;18.42;100.00;102355.13;5093810;28;20024;-70
2022/07/18 01:48:40;;;;;;;8.95;5.75;;;;;;;18.37;100.00;102347.09;5093991;28;20067;-69
2022/07/18 01:51:10;;;;;;;7.40;5.43;;;;;;;18.31;100.00;102349.69;5093720;28;20033;-70
2022/07/18 01:53:40;;;;;;;9.85;5.25;;;;;;;18.36;100.00;102339.97;5093649;28;20082;-69
2022/07/18 01:56:06;;;;;;;9.90;5.68;;;;;;;18.30;100.00;102339.91;5111740;28;20027;-70
2022/07/18 01:58:32;;;;;;;7.65;5.13;;;;;;;18.48;100.00;102349.84;5103164;28;20089;-69
2022/07/18 02:00:57;;;;;;;9.82;5.53;;;;;;;18.42;100.00;102340.03;5093796;28;20463;-69
2022/07/18 02:03:22;;;;;;;12.48;6.10;;;;;;;18.45;100.00;102342.72;5093699;28;20435;-70
2022/07/18 02:05:48;;;;;;;9.20;5.68;;;;;;;18.36;100.00;102330.19;5093980;28;20036;-69
2022/07/18 02:08:13;;;;;;;10.02;5.40;;;;;;;18.24;100.00;102329.22;5104284;28;20043;-70
2022/07/18 02:10:38;;;;;;;8.98;5.63;;;;;;;18.17;100.00;102331.81;5096081;28;20024;-69
2022/07/18 02:13:05;;;;;;;10.80;5.45;;;;;;;18.07;100.00;102327.31;5095653;28;20111;-70
2022/07/18 02:15:30;;;;;;;9.60;5.47;;;;;;;18.03;100.00;102325.50;5095683;28;20016;-69
2022/07/18 02:17:55;;;;;;;9.98;5.55;;;;;;;18.09;100.00;102316.66;5114158;28;20031;-69
2022/07/18 02:20:21;;;;;;;9.18;5.68;;;;;;;17.98;100.00;102309.44;5100016;28;20019;-69
2022/07/18 02:22:46;;;;;;;11.38;6.22;;;;;;;17.96;100.00;102312.97;5104264;28;20016;-69
2022/07/18 02:25:12;;;;;;;8.77;5.70;;;;;;;17.89;100.00;102313.75;5114379;28;20051;-69
2022/07/18 02:27:37;;;;;;;13.02;5.65;;;;;;;17.79;100.00;102312.78;5118030;28;20030;-67
2022/07/18 02:30:07;;;;;;;12.13;6.75;;;;;;;17.83;100.00;102310.16;5117851;28;20031;-68
2022/07/18 02:32:36;;;;;;;8.38;5.85;;;;;;;17.79;100.00;102310.13;5118197;28;20459;-70
2022/07/18 02:35:03;;;;;;;7.80;5.22;;;;;;;17.87;100.00;102303.97;5117966;28;20451;-68
2022/07/18 02:37:28;;;;;;;11.82;5.65;;;;;;;17.84;100.00;102303.97;5099820;28;20027;-70
2022/07/18 02:39:53;;;;;;;10.40;5.78;;;;;;;17.80;100.00;102301.28;5117823;28;20019;-69
2022/07/18 02:42:19;;;;;;;9.13;6.03;;;;;;;17.93;100.00;102296.97;5099454;28;20030;-69
2022/07/18 02:44:45;;;;;;;9.93;6.30;;;;;;;17.93;100.00;102302.28;5117663;28;20063;-69
2022/07/18 02:47:11;;;;;;;12.55;6.40;;;;;;;17.97;100.00;102299.69;5117842;28;20019;-70
2022/07/18 02:49:38;;;;;;;12.80;6.60;;;;;;;17.88;100.00;102299.56;5100022;28;20028;-69
2022/07/18 02:52:08;;;;;;;10.93;6.10;;;;;;;17.90;100.00;102294.25;5097396;28;20035;-69
2022/07/18 02:54:35;;;;;;;9.32;5.97;;;;;;;17.83;100.00;102288.84;5097284;28;20503;-68
2022/07/18 02:57:00;;;;;;;9.93;6.43;;;;;;;17.79;100.00;102295.03;5097076;28;20085;-68
2022/07/18 02:59:26;;;;;;;8.93;5.35;;;;;;;17.91;100.00;102282.72;5097104;28;20426;-69
2022/07/18 03:01:52;;;;;;;8.23;5.57;;;;;;;17.89;100.00;102289.81;5097084;28;20491;-70
2022/07/18 03:04:18;;;;;;;11.38;6.03;;;;;;;17.87;100.00;102290.66;5078877;28;20028;-69
2022/07/18 03:06:44;;;;;;;10.75;6.47;;;;;;;17.84;100.00;102295.97;5096923;28;20051;-69
2022/07/18 03:09:09;;;;;;;7.80;5.47;;;;;;;17.84;100.00;102295.09;5101279;28;20055;-69
2022/07/18 03:11:35;;;;;;;13.88;5.78;;;;;;;17.71;100.00;102291.41;5105896;28;20027;-69
2022/07/18 03:14:00;;;;;;;9.27;6.32;;;;;;;17.65;100.00;102286.03;5096698;28;20104;-69
2022/07/18 03:16:25;;;;;;;13.20;6.00;;;;;;;17.60;100.00;102279.75;5096760;28;20028;-70
2022/07/18 03:18:51;;;;;;;8.48;5.40;;;;;;;17.53;100.00;102271.69;5098036;28;20027;-70
2022/07/18 03:21:16;;;;;;;12.55;6.05;;;;;;;17.46;100.00;102269.84;5107546;28;20054;-70
2022/07/18 03:23:42;;;;;;;8.13;5.28;;;;;;;17.40;100.00;102275.09;5103372;28;20097;-70
2022/07/18 03:26:07;;;;;;;10.65;6.15;;;;;;;17.39;100.00;102268.03;5116960;28;20027;-70
2022/07/18 03:28:32;;;;;;;10.90;5.93;;;;;;;17.46;100.00;102259.22;5116817;28;20094;-68
2022/07/18 03:30:58;;;;;;;17.10;6.30;;;;;;;17.47;100.00;102260.09;5116904;28;20118;-69
2022/07/18 03:33:25;;;;;;;10.23;5.97;;;;;;;17.48;100.00;102260.09;5116886;28;20047;-69
2022/07/18 03:35:50;;;;;;;9.55;5.82;;;;;;;17.62;100.00;102265.59;5115544;28;20037;-69
2022/07/18 03:38:15;;;;;;;8.95;5.93;;;;;;;17.60;100.00;102266.44;5116794;28;20102;-70
2022/07/18 03:40:41;;;;;;;10.32;6.35;;;;;;;17.60;100.00;102262.00;5116551;28;20460;-69
2022/07/18 03:43:06;;;;;;;13.43;6.63;;;;;;;17.56;100.00;102268.19;5116255;28;20058;-70
2022/07/18 03:45:31;;;;;;;14.18;6.22;;;;;;;17.53;100.00;102253.06;5116212;28;20027;-70
2022/07/18 03:47:57;;;;;;;10.65;6.38;;;;;;;17.49;100.00;102258.34;5116148;28;20498;-71
2022/07/18 03:50:22;;;;;;;11.35;6.38;;;;;;;17.52;100.00;102253.94;5116243;28;20114;-69
2022/07/18 03:52:47;;;;;;;9.40;5.90;;;;;;;17.42;100.00;102245.88;5116230;28;20492;-70
2022/07/18 03:55:14;;;;;;;17.58;9.23;;;;;;;17.39;100.00;102252.06;5114883;28;20043;-69
2022/07/18 03:57:39;;;;;;;21.98;10.95;;;;;;;17.35;100.00;102250.22;5116277;28;20382;-69
2022/07/18 04:00:08;;;;;;;14.10;7.45;;;;;;;17.34;100.00;102249.31;5116068;28;20094;-68
2022/07/18 04:02:38;;;;;;;12.15;7.55;;;;;;;17.40;100.00;102245.81;5102410;28;20538;-69
2022/07/18 04:05:03;;;;;;;10.80;7.13;;;;;;;17.45;100.00;102245.91;5097757;28;20448;-69
2022/07/18 04:07:28;;;;;;;12.00;6.93;;;;;;;17.58;100.00;102241.56;5094217;28;20107;-70
2022/07/18 04:09:54;;;;;;;10.35;6.47;;;;;;;17.53;100.00;102239.75;5095635;28;20023;-69
2022/07/18 04:12:19;;;;;;;12.80;6.03;;;;;;;17.51;100.00;102240.63;5095449;28;20413;-69
2022/07/18 04:14:44;;;;;;;12.25;6.70;;;;;;;17.45;100.00;102235.25;5105405;28;20101;-70
2022/07/18 04:17:10;;;;;;;10.27;6.57;;;;;;;17.51;100.00;102240.63;5112189;28;20088;-69
2022/07/18 04:19:35;;;;;;;15.10;6.35;;;;;;;17.46;100.00;102243.25;5097584;28;20024;-70
2022/07/18 04:22:00;;;;;;;15.18;7.00;;;;;;;17.54;100.00;102251.31;5112147;28;20031;-69
2022/07/18 04:24:26;;;;;;;11.27;6.47;;;;;;;17.60;100.00;102245.16;5107422;28;20059;-69
2022/07/18 04:26:51;;;;;;;9.65;6.28;;;;;;;17.73;100.00;102243.50;5115626;28;20049;-69
2022/07/18 04:29:17;;;;;;;12.27;6.07;;;;;;;17.84;100.00;102239.19;5105652;28;20531;-70
2022/07/18 04:31:42;;;;;;;14.10;6.65;;;;;;;17.90;100.00;102238.34;5094886;28;20387;-70
2022/07/18 04:34:07;;;;;;;9.63;6.20;;;;;;;17.97;100.00;102237.53;5094955;28;20448;-70
2022/07/18 04:36:32;;;;;;;16.60;6.47;;;;;;;18.02;100.00;102238.47;5094781;28;20518;-69
2022/07/18 04:38:58;;;;;;;11.07;6.30;;;;;;;18.09;100.00;102234.06;5095047;28;20376;-69
2022/07/18 04:41:24;;;;;;;9.48;6.70;;;;;;;18.14;100.00;102237.69;5094684;28;20106;-70
2022/07/18 04:43:51;;;;;;;10.80;6.00;;;;;;;18.17;100.00;102243.03;5094876;28;20356;-70
2022/07/18 04:46:16;;;;;;;11.05;6.82;;;;;;;18.22;100.00;102256.34;5094262;28;20099;-70
2022/07/18 04:48:41;;;;;;;11.18;6.10;;;;;;;18.24;100.00;102246.63;5076467;28;20150;-71
2022/07/18 04:51:07;;;;;;;12.48;6.43;;;;;;;18.29;100.00;102245.75;5094464;28;20020;-70
2022/07/18 04:53:32;;;;;;;11.43;6.30;;;;;;;18.32;100.00;102248.44;5094646;28;20043;-71
2022/07/18 04:55:57;;;;;;;10.80;6.43;;;;;;;18.32;100.00;102242.22;5095979;28;20028;-70
2022/07/18 04:58:23;;;;;;;9.65;6.05;;;;;;;18.35;100.00;102239.56;5094463;28;20031;-70
2022/07/18 05:00:48;;;;;;;16.75;6.50;;;;;;;18.35;100.00;102242.25;5094397;28;20069;-70
2022/07/18 05:03:14;;;;;;;9.18;6.10;;;;;;;18.37;100.00;102240.50;5094462;28;20020;-69
2022/07/18 05:05:40;;;;;;;8.38;5.60;;;;;;;18.39;100.00;102241.38;5094405;28;20116;-69
2022/07/18 05:08:05;;;;;;;8.88;5.97;;;;;;;18.41;100.00;102246.72;5094166;28;20019;-70
2022/07/18 05:10:32;;;;;;;13.93;6.22;;;;;;;18.41;100.00;102242.31;5095664;28;20024;-69
2022/07/18 05:12:57;;;;;;;10.82;6.20;;;;;;;18.47;100.00;102247.66;5114658;28;20479;-70
2022/07/18 05:15:24;;;;;;;8.95;5.65;;;;;;;18.52;100.00;102251.25;5099355;28;20038;-71
2022/07/18 05:17:49;;;;;;;9.82;6.57;;;;;;;18.54;100.00;102257.50;5094247;28;20019;-70
2022/07/18 05:20:17;;;;;;;14.80;6.22;;;;;;;18.60;100.00;102250.38;5099125;28;20504;-69
2022/07/18 05:22:43;;;;;;;8.75;5.70;;;;;;;18.63;100.00;102247.75;5108859;28;20031;-70
2022/07/18 05:25:09;;;;;;;14.07;6.38;;;;;;;18.68;100.00;102246.03;5112155;28;20528;-69
2022/07/18 05:27:35;;;;;;;9.32;5.63;;;;;;;18.73;100.00;102249.56;5094225;28;20490;-69
2022/07/18 05:30:02;;;;;;;12.25;6.18;;;;;;;18.77;100.00;102246.03;5094162;28;20020;-70
2022/07/18 05:32:28;;;;;;;11.73;6.35;;;;;;;18.79;100.00;102243.41;5094371;28;20157;-69
2022/07/18 05:34:53;;;;;;;15.25;6.00;;;;;;;18.84;100.00;102241.63;5093999;28;20107;-70
2022/07/18 05:37:19;;;;;;;13.48;6.38;;;;;;;18.90;100.00;102243.50;5093962;28;20027;-70
2022/07/18 05:39:44;;;;;;;9.85;6.07;;;;;;;18.95;100.00;102239.94;5093895;28;20020;-70
2022/07/18 05:42:10;;;;;;;10.82;6.07;;;;;;;19.01;100.00;102239.06;5093995;28;20030;-70
2022/07/18 05:44:35;;;;;;;12.18;5.88;;;;;;;19.06;100.00;102226.66;5093744;28;20051;-69
2022/07/18 05:47:00;;;;;;;12.63;6.70;;;;;;;19.11;100.00;102227.53;5093903;28;20080;-70
2022/07/18 05:49:26;;;;;;;8.65;5.47;;;;;;;19.19;100.00;102232.91;5093913;28;20033;-70
2022/07/18 05:51:51;;;;;;;9.82;5.10;;;;;;;19.26;100.00;102229.38;5102320;28;20021;-70
2022/07/18 05:54:19;;;;;;;14.57;5.72;;;;;;;19.32;100.00;102213.38;5099946;28;20046;-70
2022/07/18 05:56:49;;;;;;;10.18;5.20;;;;;;;19.39;100.00;102214.28;5093987;28;20108;-70
2022/07/18 05:59:15;;;;;;;9.52;5.97;;;;;;;19.41;100.00;102212.50;5093224;28;20043;-70
2022/07/18 06:01:41;;;;;;;11.15;6.15;;;;;;;19.41;100.00;102220.53;5084491;28;20061;-69
2022/07/18 06:04:06;;;;;;;10.68;5.68;;;;;;;19.50;100.00;102217.84;5097821;28;20103;-71
2022/07/18 06:06:31;;;;;;;10.18;5.68;;;;;;;19.55;100.00;102216.06;5093504;28;20057;-70
2022/07/18 06:08:57;;;;;;;10.93;5.13;;;;;;;19.66;100.00;102212.53;5095426;28;20055;-70
2022/07/18 06:11:22;;;;;;;10.45;6.15;;;;;;;19.74;100.00;102204.50;5114052;28;20035;-71
2022/07/18 06:13:47;;;;;;;8.75;4.93;;;;;;;19.82;100.00;102213.47;5113685;28;20106;-71
2022/07/18 06:16:13;;;;;;;11.38;5.90;;;;;;;19.89;100.00;102209.91;5095607;28;20106;-71
2022/07/18 06:18:38;;;;;;;6.72;5.10;;;;;;;19.98;100.00;102220.59;5111805;28;20027;-70
2022/07/18 06:21:04;;;;;;;10.18;5.00;;;;;;;20.09;99.73;102206.31;5102380;28;20058;-70
2022/07/18 06:23:30;;;;;;;9.02;4.22;;;;;;;20.23;98.67;102214.34;5099967;28;20028;-70
2022/07/18 06:25:56;;;;;;;10.45;5.50;;;;;;;20.31;96.48;102207.19;5113778;28;20504;-70
2022/07/18 06:28:21;;;;;;;12.88;4.82;;;;;;;20.37;95.25;102210.72;5095490;28;20039;-71
2022/07/18 06:30:47;;;;;;;9.63;3.75;;;;;;;20.42;94.74;102209.84;5113815;28;20024;-70
2022/07/18 06:33:13;;;;;;;10.98;4.43;;;;;;;20.43;92.15;102212.50;5113856;28;20073;-71
2022/07/18 06:35:39;;;;;;;8.07;4.40;;;;;;;20.43;92.96;102212.50;5113319;28;20031;-71
2022/07/18 06:38:05;;;;;;;10.95;4.38;;;;;;;20.43;92.94;102211.59;5113759;28;20042;-70
2022/07/18 06:40:30;;;;;;;12.43;4.63;;;;;;;20.43;94.28;102217.84;5113939;28;20027;-71
2022/07/18 06:42:56;;;;;;;9.63;4.25;;;;;;;20.47;95.58;102214.25;5113936;28;20055;-71
2022/07/18 06:45:21;;;;;;;7.45;4.03;;;;;;;20.55;95.49;102215.13;5113736;28;20027;-71
2022/07/18 06:47:46;;;;;;;10.75;4.07;;;;;;;20.68;95.39;102207.97;5095395;28;20027;-71
2022/07/18 06:50:13;;;;;;;7.18;3.42;;;;;;;20.84;94.14;102210.59;5113361;28;20041;-71
2022/07/18 06:52:40;;;;;;;7.28;3.78;;;;;;;20.96;92.24;102210.53;5113296;28;20106;-70
2022/07/18 06:55:07;;;;;;;8.88;3.80;;;;;;;21.07;92.54;102210.50;5112290;28;20032;-70
2022/07/18 06:57:32;;;;;;;9.27;3.17;;;;;;;21.16;92.52;102204.19;5095066;28;20084;-70
2022/07/18 06:59:57;;;;;;;8.23;3.30;;;;;;;21.25;90.29;102200.56;5113385;28;20027;-70
2022/07/18 07:02:23;;;;;;;9.25;3.63;;;;;;;21.35;90.86;102203.19;5113295;28;20059;-70
2022/07/18 07:04:48;;;;;;;6.88;3.65;;;;;;;21.47;91.14;102199.50;5113499;28;20481;-71
2022/07/18 07:07:14;;;;;;;12.40;3.53;;;;;;;21.62;91.17;102198.53;5095088;28;20053;-70
2022/07/18 07:09:39;;;;;;;15.55;4.22;;;;;;;21.76;89.39;102194.84;5105981;28;20388;-70
2022/07/18 07:12:05;;;;;;;7.78;3.08;;;;;;;21.90;90.14;102196.50;5098218;28;20059;-71
2022/07/18 07:14:30;;;;;;;6.85;3.38;;;;;;;22.03;87.33;102204.44;5117403;28;20425;-70
2022/07/18 07:16:55;;;;;;;5.75;3.03;;;;;;;22.16;86.02;102200.75;5101780;28;20016;-70
2022/07/18 07:19:21;;;;;;;12.65;2.60;;;;;;;22.32;83.28;102196.09;5106878;28;20028;-70
2022/07/18 07:21:46;;;;;;;6.88;2.40;;;;;;;22.41;80.19;102195.16;5115552;28;20032;-70
2022/07/18 07:24:12;;;;;;;5.32;2.75;;;;;;;22.51;79.11;102193.25;5104539;28;20032;-70
2022/07/18 07:26:37;;;;;;;10.85;2.58;;;;;;;22.61;76.47;102188.66;5116876;28;20471;-69
2022/07/18 07:29:02;;;;;;;9.75;2.70;;;;;;;22.72;74.91;102189.41;5116945;28;20028;-69
2022/07/18 07:31:28;;;;;;;13.32;2.95;;;;;;;22.85;74.89;102198.19;5116732;28;20031;-70
2022/07/18 07:33:53;;;;;;;7.47;2.30;;;;;;;22.94;73.15;102199.88;5116906;28;20016;-70
2022/07/18 07:36:19;;;;;;;15.05;2.75;;;;;;;23.01;73.44;102198.91;5116738;28;20015;-70
2022/07/18 07:38:44;;;;;;;19.23;3.78;;;;;;;23.11;71.74;102191.59;5109346;28;20081;-69
2022/07/18 07:41:13;;;;;;;8.65;2.78;;;;;;;23.22;71.46;102197.72;5096185;28;20024;-71
2022/07/18 07:43:38;;;;;;;12.57;2.72;;;;;;;23.33;70.55;102202.94;5104124;28;20028;-70
2022/07/18 07:46:04;;;;;;;9.02;2.38;;;;;;;23.41;69.09;102195.63;5102498;28;20040;-70
2022/07/18 07:48:29;;;;;;;10.32;2.80;;;;;;;23.50;70.47;102200.88;5116547;28;20405;-71
2022/07/18 07:50:54;;;;;;;7.95;2.65;;;;;;;23.63;70.49;102200.66;5102184;28;20055;-71
2022/07/18 07:53:20;;;;;;;5.47;2.45;;;;;;;23.74;67.45;102193.34;5096171;28;20016;-71
2022/07/18 07:55:45;;;;;;;11.38;2.60;;;;;;;23.84;65.95;102194.06;5097081;28;20052;-71
2022/07/18 07:58:11;;;;;;;8.98;2.20;;;;;;;23.97;66.99;102192.03;5095930;28;20035;-71
2022/07/18 08:00:37;;;;;;;6.85;2.65;;;;;;;24.12;65.70;102188.19;5095898;28;20024;-70
2022/07/18 08:03:04;;;;;;;10.73;2.65;;;;;;;24.19;60.19;102193.44;5095494;28;20020;-71
2022/07/18 08:05:33;;;;;;;7.60;2.08;;;;;;;24.28;61.13;102189.69;5091345;28;20124;-71
2022/07/18 08:07:59;;;;;;;7.85;2.10;;;;;;;24.38;60.22;102185.03;5095704;28;20039;-71
2022/07/18 08:10:25;;;;;;;9.07;2.28;;;;;;;24.48;60.50;102185.72;5095746;28;20020;-71
2022/07/18 08:12:51;;;;;;;4.82;1.90;;;;;;;24.53;60.35;102182.00;5077597;28;20173;-70
2022/07/18 08:15:16;;;;;;;6.10;2.10;;;;;;;24.64;60.50;102186.31;5095635;28;20062;-70
2022/07/18 08:17:41;;;;;;;7.38;2.38;;;;;;;24.75;60.24;102181.59;5095590;28;20077;-71
2022/07/18 08:20:07;;;;;;;4.68;2.03;;;;;;;24.85;57.60;102180.47;5098351;28;20042;-70
2022/07/18 08:22:33;;;;;;;6.68;2.15;;;;;;;24.96;57.33;102176.63;5096926;28;20020;-70
2022/07/18 08:24:58;;;;;;;8.20;2.10;;;;;;;25.04;56.13;102180.03;5114776;28;20031;-70
2022/07/18 08:27:24;;;;;;;5.53;1.85;;;;;;;25.15;55.60;102172.63;5103362;28;20091;-71
2022/07/18 08:29:49;;;;;;;11.43;1.90;;;;;;;25.21;53.48;102172.47;5115907;28;20019;-70
2022/07/18 08:32:14;;;;;;;5.18;1.88;;;;;;;25.34;53.57;102172.19;5108199;28;20020;-72
2022/07/18 08:34:40;;;;;;;6.07;2.00;;;;;;;25.39;54.47;102181.97;5095232;28;20016;-70
2022/07/18 08:37:05;;;;;;;10.90;2.50;;;;;;;25.46;51.28;102171.91;5095051;28;20020;-69
2022/07/18 08:39:31;;;;;;;7.43;2.45;;;;;;;25.53;51.09;102170.84;5095218;28;20053;-70
2022/07/18 08:41:59;;;;;;;6.30;1.77;;;;;;;25.59;52.65;102176.06;5095353;28;20421;-70
2022/07/18 08:44:27;;;;;;;8.27;2.17;;;;;;;25.71;51.22;102176.69;5095025;28;20055;-70
2022/07/18 08:46:53;;;;;;;5.22;2.05;;;;;;;25.85;50.93;102174.50;5095299;28;20439;-70
2022/07/18 08:49:20;;;;;;;6.43;2.20;;;;;;;25.88;48.66;102173.53;5095017;28;20089;-70
2022/07/18 08:51:46;;;;;;;4.10;2.05;;;;;;;25.95;47.76;102179.66;5095140;28;20534;-71
2022/07/18 08:54:12;;;;;;;5.95;2.30;;;;;;;26.12;48.52;102173.84;5092429;28;20047;-70
2022/07/18 08:56:37;;;;;;;7.82;2.40;;;;;;;26.25;47.43;102177.97;5115222;28;20028;-70
2022/07/18 08:59:03;;;;;;;6.72;2.42;;;;;;;26.34;46.55;102174.13;5115365;28;20440;-70
2022/07/18 09:01:31;;;;;;;6.03;2.30;;;;;;;26.43;45.92;102179.25;5115636;28;20027;-71
2022/07/18 09:04:16;;;;;;;6.57;2.33;;;;;;;26.54;46.98;102179.81;5115523;28;20020;-71
2022/07/18 09:06:50;;;;;;;6.22;2.20;;;;;;;26.62;46.60;102176.03;5104442;28;20055;-71
2022/07/18 09:09:17;;;;;;;6.18;2.03;;;;;;;26.67;44.13;102184.84;5094806;28;20076;-71
2022/07/18 09:11:51;;;;;;;10.75;2.00;;;;;;;26.77;43.24;102180.97;5094797;28;20043;-70
2022/07/18 09:14:53;;;;;;;8.95;2.65;;;;;;;26.73;42.68;102179.31;5094861;28;20027;-69
2022/07/18 09:17:22;;;;;;;4.78;2.22;;;;;;;26.87;45.02;102177.09;5091493;28;20051;-70
2022/07/18 09:20:08;;;;;;;6.95;2.28;;;;;;;26.99;41.60;102172.22;5097268;28;20019;-70
2022/07/18 09:22:34;;;;;;;7.70;2.38;;;;;;;27.10;41.91;102172.75;5094658;28;20078;-70
2022/07/18 09:25:12;;;;;;;8.07;2.08;;;;;;;27.11;40.40;102163.72;5109677;28;20059;-71
2022/07/18 09:27:39;;;;;;;10.88;1.95;;;;;;;27.25;42.59;102172.28;5115001;28;20030;-70
2022/07/18 09:30:23;;;;;;;5.40;2.15;;;;;;;27.21;40.38;102170.63;5114948;28;20031;-70
2022/07/18 09:32:53;;;;;;;6.20;2.20;;;;;;;27.29;41.12;102166.75;5113773;28;20028;-71
2022/07/18 09:35:26;;;;;;;5.72;1.98;;;;;;;27.38;41.22;102166.50;5107881;28;20026;-69
2022/07/18 09:37:59;;;;;;;5.45;2.00;;;;;;;27.50;42.26;102160.69;5076044;28;20059;-70
2022/07/18 09:40:35;;;;;;;;;;;;;;;27.63;41.73;102155.72;5094631;28;20016;-70
2022/07/18 09:43:09;;;;;;;5.20;1.85;;;;;;;27.77;41.34;102152.56;5093911;28;19915;-69
2022/07/18 09:45:42;;;;;;;8.30;2.35;;;;;;;27.89;39.71;102152.13;5105562;28;20027;-70
2022/07/18 09:48:09;;;;;;;5.50;1.92;;;;;;;28.04;39.72;102147.09;5095197;28;20413;-70
2022/07/18 09:50:36;;;;;;;4.80;1.75;;;;;;;28.09;39.51;102158.66;5094203;28;20024;-71
2022/07/18 09:53:07;;;;;;;6.60;1.90;;;;;;;28.05;39.42;102151.59;5094048;28;20028;-70
2022/07/18 09:55:33;;;;;;;3.83;1.70;;;;;;;28.26;39.13;102145.38;5103076;28;20071;-70
2022/07/18 09:58:04;;;;;;;9.00;2.15;;;;;;;28.38;38.35;102154.00;5094136;28;20036;-70
2022/07/18 10:00:32;;;;;;;4.35;1.80;;;;;;;28.47;37.12;102150.94;5108195;28;20111;-69
2022/07/18 10:02:58;;;;;;;7.10;1.70;;;;;;;28.58;38.08;102151.41;5107153;28;20399;-71
2022/07/18 10:05:27;;;;;;;5.72;1.90;;;;;;;28.70;36.63;102154.63;5093943;28;20081;-71
2022/07/18 10:07:53;;;;;;;7.75;2.03;;;;;;;28.87;37.01;102149.41;5093806;28;20020;-72
2022/07/18 10:10:19;;;;;;;3.72;1.70;;;;;;;29.00;34.09;102148.91;5093554;28;20451;-72
2022/07/18 10:12:44;;;;;;;7.03;1.70;;;;;;;29.12;35.42;102145.69;5093414;28;20063;-71
2022/07/18 10:15:09;;;;;;;3.78;1.63;;;;;;;29.18;35.02;102140.03;5093965;28;20455;-71
2022/07/18 10:17:35;;;;;;;6.13;1.70;;;;;;;29.12;35.61;102143.00;5093391;28;20028;-71
2022/07/18 10:20:07;;;;;;;3.90;1.77;;;;;;;29.07;34.30;102143.19;5094491;28;20016;-70
2022/07/18 10:22:42;;;;;;;3.42;1.98;;;;;;;29.03;31.70;102138.84;5106066;28;20099;-70
2022/07/18 10:25:08;;;;;;;4.70;1.80;;;;;;;29.24;32.22;102137.06;5093560;28;20020;-71
2022/07/18 10:27:54;;;;;;;3.88;2.38;;;;;;;29.39;30.57;102148.25;5093856;28;20035;-70
2022/07/18 10:30:38;;;;;;;2.75;1.70;;;;;;;29.56;30.92;102151.13;5093838;28;20021;-70
2022/07/18 10:33:24;;;;;;;3.33;2.20;;;;;;;29.63;28.98;102150.84;5075519;28;20032;-71
2022/07/18 10:36:01;;;;;;;6.28;2.22;;;;;;;29.75;28.08;102153.06;5093342;28;20030;-70
2022/07/18 10:38:27;;;;;;;4.05;2.30;;;;;;;29.74;28.61;102151.28;5093484;28;20035;-71
2022/07/18 10:41:12;;;;;;;6.07;2.55;;;;;;;29.69;25.88;102146.03;5093602;28;20027;-70
2022/07/18 10:43:43;;;;;;;7.72;2.58;;;;;;;29.66;26.52;102145.31;5100978;28;20034;-70
2022/07/18 10:46:11;;;;;;;7.47;2.72;;;;;;;29.77;30.68;102143.00;5117940;28;20035;-70
2022/07/18 10:48:40;;;;;;;4.35;2.22;;;;;;;29.89;29.36;102141.63;5118234;28;20084;-70
2022/07/18 10:51:12;;;;;;;4.93;2.60;;;;;;;29.91;25.96;102131.56;5102523;28;20114;-69
2022/07/18 10:53:57;;;;;;;5.10;2.80;;;;;;;30.10;25.04;102135.22;5097480;28;20031;-70
2022/07/18 10:56:28;;;;;;;5.20;3.30;;;;;;;30.01;24.00;102127.50;5099046;28;20044;-71
2022/07/18 10:59:00;;;;;;;6.65;2.47;;;;;;;30.16;27.08;102134.06;5097356;28;20063;-71
2022/07/18 11:01:26;;;;;;;4.30;2.50;;;;;;;30.11;26.16;102130.66;5104039;28;20020;-70
2022/07/18 11:04:32;;;;;;;6.50;2.80;;;;;;;30.32;27.90;102133.34;5117605;28;20038;-71
2022/07/18 11:07:10;;;;;;;7.00;3.00;;;;;;;30.20;25.29;102138.41;5117659;28;20104;-70
2022/07/18 11:09:38;;;;;;;9.70;3.50;;;;;;;30.27;25.73;102126.28;5117818;28;20056;-70
2022/07/18 11:12:22;;;;;;;7.68;3.10;;;;;;;30.61;27.95;102141.03;5117659;28;20030;-70
2022/07/18 11:15:10;;;;;;;6.57;2.90;;;;;;;30.90;26.29;102127.88;5099209;28;20049;-71
2022/07/18 11:17:51;;;;;;;4.00;3.20;;;;;;;31.23;27.41;102129.91;5117228;28;20037;-70
2022/07/18 11:20:23;;;;;;;4.18;3.15;;;;;;;31.22;24.00;102127.25;5117078;28;20036;-70